Time;durP1;ratioP1;P1;durP2;ratioP2;P2;SDS_P1;SDS_P2;PMS_P1;PMS_P2;Temp;Humidity;BMP_temperature;BMP_pressure;BME280_temperature;BME280_humidity;BME280_pressure;Samples;Min_cycle;Max_cycle;Signal;HPM_P1;HPM_P2
2022/06/16 00:00:10;;;;;;;3.90;2.60;;;;;19.20;101326.00;;;;5040420;28;20224;-68
2022/06/16 00:02:56;;;;;;;5.00;2.70;;;;;19.20;101321.00;;;;5053334;28;20240;-67
2022/06/16 00:05:45;;;;;;;4.33;2.50;;;;;19.00;101331.00;;;;5047216;28;20267;-68
2022/06/16 00:08:31;;;;;;;3.53;2.50;;;;;19.00;101337.00;;;;5043631;28;20335;-68
2022/06/16 00:11:17;;;;;;;4.17;2.60;;;;;19.00;101345.00;;;;5044066;28;20209;-68
2022/06/16 00:14:04;;;;;;;4.83;2.47;;;;;19.00;101355.00;;;;5039457;28;20240;-68
2022/06/16 00:16:50;;;;;;;3.20;2.30;;;;;18.90;101361.00;;;;5040550;28;20229;-67
2022/06/16 00:19:37;;;;;;;4.20;2.53;;;;;18.90;101364.00;;;;5042236;28;20591;-67
2022/06/16 00:22:25;;;;;;;3.87;2.23;;;;;18.70;101360.00;;;;5044332;28;20886;-68
2022/06/16 00:25:12;;;;;;;4.93;2.50;;;;;18.80;101347.00;;;;5040141;28;20610;-67
2022/06/16 00:27:58;;;;;;;3.30;2.40;;;;;18.80;101355.00;;;;5044195;28;20225;-66
2022/06/16 00:30:44;;;;;;;5.33;2.93;;;;;18.80;101358.00;;;;5038995;28;20309;-67
2022/06/16 00:33:31;;;;;;;4.57;2.53;;;;;18.60;101352.00;;;;5048084;28;20236;-67
2022/06/16 00:36:17;;;;;;;3.40;2.63;;;;;18.60;101337.00;;;;5045512;28;20204;-68
2022/06/16 00:39:05;;;;;;;3.97;2.73;;;;;18.70;101334.00;;;;5047192;28;20217;-69
2022/06/16 00:41:51;;;;;;;3.00;2.60;;;;;18.50;101333.00;;;;5044118;28;20235;-67
2022/06/16 00:44:40;;;;;;;3.87;2.53;;;;;18.60;101315.00;;;;5046029;28;20208;-67
2022/06/16 00:47:29;;;;;;;4.90;2.50;;;;;18.30;101338.00;;;;5037634;28;20854;-67
2022/06/16 00:50:16;;;;;;;5.13;2.40;;;;;18.20;101328.00;;;;5039975;28;20228;-67
2022/06/16 00:53:02;;;;;;;4.13;2.17;;;;;18.20;101333.00;;;;5033481;28;20237;-68
2022/06/16 00:55:50;;;;;;;2.53;2.10;;;;;18.20;101344.00;;;;5043457;28;20220;-67
2022/06/16 00:58:40;;;;;;;5.20;2.23;;;;;18.10;101336.00;;;;5042019;28;20209;-67
2022/06/16 01:01:27;;;;;;;2.40;2.20;;;;;18.20;101339.00;;;;5042056;28;20593;-68
2022/06/16 01:07:15;;;;;;;3.40;2.30;;;;;18.10;101341.00;;;;5038701;28;20232;-67
2022/06/16 01:10:02;;;;;;;3.47;2.20;;;;;18.10;101327.00;;;;5038055;28;20622;-67
2022/06/16 01:16:24;;;;;;;2.53;2.13;;;;;18.00;101327.00;;;;5045242;28;20260;-67
2022/06/16 01:19:34;;;;;;;3.57;2.30;;;;;18.00;101320.00;;;;5039803;28;20221;-67
2022/06/16 01:22:30;;;;;;;6.63;2.53;;;;;18.00;101327.00;;;;5041372;28;20237;-68
2022/06/16 01:25:26;;;;;;;3.37;2.40;;;;;17.90;101322.00;;;;5039061;28;20209;-67
2022/06/16 01:28:24;;;;;;;3.80;2.27;;;;;17.90;101333.00;;;;5034964;28;20212;-67
2022/06/16 01:31:19;;;;;;;3.20;2.27;;;;;17.90;101326.00;;;;5034707;28;20291;-67
2022/06/16 01:34:12;;;;;;;4.83;2.40;;;;;18.00;101335.00;;;;5042828;28;20241;-67
2022/06/16 01:37:05;;;;;;;5.77;2.60;;;;;17.80;101342.00;;;;5039718;28;20216;-67
2022/06/16 01:40:00;;;;;;;3.50;2.10;;;;;17.80;101336.00;;;;5042525;28;20702;-67
2022/06/16 01:42:54;;;;;;;4.23;2.33;;;;;17.80;101345.00;;;;5039176;28;20948;-66
2022/06/16 01:45:47;;;;;;;4.30;2.10;;;;;17.70;101356.00;;;;5047954;28;20221;-66
2022/06/16 01:48:37;;;;;;;4.40;2.40;;;;;17.60;101364.00;;;;5037302;28;20290;-66
2022/06/16 01:51:30;;;;;;;2.40;2.20;;;;;17.60;101355.00;;;;5044500;28;20267;-67
2022/06/16 01:54:20;;;;;;;3.57;1.97;;;;;17.60;101361.00;;;;5037356;28;20232;-68
2022/06/16 01:57:12;;;;;;;4.47;2.17;;;;;17.50;101350.00;;;;5048903;28;20279;-68
2022/06/16 02:00:04;;;;;;;2.30;2.00;;;;;17.60;101359.00;;;;5048424;28;20690;-66
2022/06/16 02:02:55;;;;;;;5.63;2.63;;;;;17.60;101359.00;;;;5047799;28;20245;-68
2022/06/16 02:05:47;;;;;;;3.87;2.10;;;;;17.70;101363.00;;;;5048891;28;20757;-68
2022/06/16 02:08:38;;;;;;;3.17;1.83;;;;;17.60;101363.00;;;;5044854;28;20688;-66
2022/06/16 02:11:29;;;;;;;5.17;2.40;;;;;17.50;101356.00;;;;5047014;28;20316;-67
2022/06/16 02:14:22;;;;;;;2.17;1.90;;;;;17.50;101348.00;;;;5050127;28;20364;-67
2022/06/16 02:17:10;;;;;;;2.50;1.80;;;;;17.50;101349.00;;;;5038370;28;20225;-66
2022/06/16 02:19:56;;;;;;;2.43;1.73;;;;;17.40;101349.00;;;;5041062;28;20704;-67
2022/06/16 02:22:44;;;;;;;4.33;1.90;;;;;17.40;101350.00;;;;5045798;28;20243;-67
2022/06/16 02:25:30;;;;;;;2.00;1.80;;;;;17.40;101335.00;;;;5048653;28;20298;-67
2022/06/16 02:28:17;;;;;;;4.40;1.93;;;;;17.50;101342.00;;;;5046043;28;20221;-67
2022/06/16 02:31:12;;;;;;;2.40;1.90;;;;;17.40;101345.00;;;;5057162;28;20572;-66
2022/06/16 02:34:05;;;;;;;2.80;2.10;;;;;17.40;101350.00;;;;5048795;28;20717;-66
2022/06/16 02:37:09;;;;;;;3.33;1.77;;;;;17.30;101351.00;;;;5048063;28;20212;-66
2022/06/16 02:40:11;;;;;;;3.03;1.70;;;;;17.40;101355.00;;;;5047371;28;20215;-66
2022/06/16 02:43:07;;;;;;;1.83;1.60;;;;;17.20;101352.00;;;;5056695;28;20236;-67
2022/06/16 02:46:01;;;;;;;2.83;2.03;;;;;17.30;101361.00;;;;5047451;28;20352;-66
2022/06/16 02:48:52;;;;;;;1.63;1.53;;;;;17.20;101364.00;;;;5045884;28;20425;-67
2022/06/16 02:51:44;;;;;;;2.13;1.87;;;;;17.20;101361.00;;;;5047619;28;20204;-67
2022/06/16 02:54:45;;;;;;;2.00;1.60;;;;;17.20;101357.00;;;;5044735;28;20320;-68
2022/06/16 02:57:36;;;;;;;4.17;1.70;;;;;17.10;101361.00;;;;5048337;28;20209;-67
2022/06/16 03:00:28;;;;;;;2.67;1.87;;;;;17.10;101378.00;;;;5042167;28;20740;-68
2022/06/16 03:03:23;;;;;;;2.73;1.90;;;;;17.00;101363.00;;;;5042345;28;20268;-67
2022/06/16 03:06:11;;;;;;;4.37;2.13;;;;;16.90;101369.00;;;;5047760;28;20204;-67
2022/06/16 03:08:58;;;;;;;2.33;2.07;;;;;16.80;101373.00;;;;5045506;28;20205;-67
2022/06/16 03:11:49;;;;;;;2.03;1.90;;;;;16.70;101367.00;;;;5045878;28;20237;-68
2022/06/16 03:14:37;;;;;;;3.30;1.93;;;;;16.50;101364.00;;;;5039389;28;20209;-68
2022/06/16 03:17:23;;;;;;;4.67;2.00;;;;;16.30;101369.00;;;;5043913;28;20229;-66
2022/06/16 03:20:12;;;;;;;3.00;2.00;;;;;16.30;101378.00;;;;5036688;28;20548;-68
2022/06/16 03:22:58;;;;;;;5.00;2.40;;;;;16.30;101382.00;;;;5039574;28;20367;-67
2022/06/16 03:25:45;;;;;;;3.07;2.13;;;;;16.30;101381.00;;;;5044650;28;20205;-67
2022/06/16 03:28:31;;;;;;;3.27;2.03;;;;;16.10;101382.00;;;;5046736;28;20267;-64
2022/06/16 03:31:19;;;;;;;3.30;1.80;;;;;16.00;101401.00;;;;5045115;28;20247;-66
2022/06/16 03:34:05;;;;;;;3.37;1.97;;;;;15.80;101411.00;;;;5036847;28;20291;-66
2022/06/16 03:36:52;;;;;;;2.53;2.07;;;;;15.80;101411.00;;;;5043830;28;20212;-67
2022/06/16 03:39:39;;;;;;;2.83;1.90;;;;;15.70;101410.00;;;;5039600;28;20203;-68
2022/06/16 03:42:25;;;;;;;3.03;2.10;;;;;15.50;101432.00;;;;5050955;28;20232;-67
2022/06/16 03:45:11;;;;;;;3.53;2.07;;;;;15.50;101418.00;;;;5041456;28;20294;-67
2022/06/16 03:47:59;;;;;;;2.10;1.90;;;;;15.50;101431.00;;;;5047301;28;20916;-67
2022/06/16 03:50:45;;;;;;;3.20;2.20;;;;;15.50;101425.00;;;;5045062;28;20299;-66
2022/06/16 03:53:31;;;;;;;3.70;2.00;;;;;15.50;101427.00;;;;5045277;28;20234;-67
2022/06/16 03:56:18;;;;;;;3.10;2.00;;;;;15.40;101428.00;;;;5043214;28;20280;-66
2022/06/16 03:59:04;;;;;;;2.40;2.10;;;;;15.50;101432.00;;;;5046870;28;20214;-68
2022/06/16 04:01:51;;;;;;;2.83;2.17;;;;;15.50;101432.00;;;;5037911;28;20724;-68
2022/06/16 04:04:46;;;;;;;3.00;2.10;;;;;15.50;101431.00;;;;5034849;28;20327;-68
2022/06/16 04:07:32;;;;;;;2.87;2.30;;;;;15.70;101434.00;;;;5038341;28;20214;-68
2022/06/16 04:10:18;;;;;;;2.50;2.30;;;;;15.70;101428.00;;;;5031781;28;20289;-68
2022/06/16 04:13:05;;;;;;;3.17;2.30;;;;;15.70;101424.00;;;;5040068;28;20336;-67
2022/06/16 04:15:52;;;;;;;3.70;2.20;;;;;15.70;101417.00;;;;5052156;28;20201;-68
2022/06/16 04:18:38;;;;;;;5.03;2.40;;;;;15.90;101421.00;;;;5046254;28;20838;-66
2022/06/16 04:21:26;;;;;;;4.37;2.30;;;;;15.90;101435.00;;;;5042005;28;20288;-68
2022/06/16 04:24:13;;;;;;;4.43;2.10;;;;;16.00;101443.00;;;;5043590;28;20669;-68
2022/06/16 04:26:59;;;;;;;2.80;2.43;;;;;16.00;101438.00;;;;5046684;28;20213;-67
2022/06/16 04:29:45;;;;;;;3.73;2.30;;;;;16.00;101448.00;;;;5044297;28;20300;-66
2022/06/16 04:32:31;;;;;;;4.93;2.30;;;;;16.00;101452.00;;;;5046988;28;20277;-67
2022/06/16 04:35:18;;;;;;;3.57;2.40;;;;;16.00;101447.00;;;;5046558;28;20799;-68
2022/06/16 04:38:06;;;;;;;3.00;2.37;;;;;16.10;101453.00;;;;5045717;28;20258;-68
2022/06/16 04:40:52;;;;;;;3.50;2.33;;;;;16.10;101461.00;;;;5045144;28;20348;-68
2022/06/16 04:43:38;;;;;;;4.90;2.57;;;;;16.00;101459.00;;;;5042512;28;20245;-68
2022/06/16 04:46:28;;;;;;;3.27;2.43;;;;;16.20;101459.00;;;;5044701;28;20208;-68
2022/06/16 04:49:14;;;;;;;6.30;2.40;;;;;16.20;101457.00;;;;5039486;28;20209;-68
2022/06/16 04:52:00;;;;;;;4.10;2.33;;;;;16.10;101473.00;;;;5045588;28;20248;-68
2022/06/16 04:54:49;;;;;;;3.53;2.33;;;;;16.20;101469.00;;;;5044836;28;20301;-68
2022/06/16 04:57:44;;;;;;;3.57;2.33;;;;;16.20;101474.00;;;;5044304;28;20311;-68
2022/06/16 05:00:30;;;;;;;3.20;2.50;;;;;16.20;101473.00;;;;5045101;28;20211;-68
2022/06/16 05:03:26;;;;;;;4.37;2.33;;;;;16.30;101478.00;;;;5033198;28;20311;-67
2022/06/16 05:06:13;;;;;;;4.37;2.30;;;;;16.30;101480.00;;;;5046647;28;20212;-67
2022/06/16 05:08:59;;;;;;;5.90;2.63;;;;;16.30;101479.00;;;;5044646;28;20229;-67
2022/06/16 05:11:46;;;;;;;6.83;2.63;;;;;16.30;101480.00;;;;5045967;28;20213;-68
2022/06/16 05:14:32;;;;;;;3.60;2.40;;;;;16.30;101489.00;;;;5041063;28;20207;-69
2022/06/16 05:17:18;;;;;;;4.20;2.40;;;;;16.40;101493.00;;;;5042048;28;20208;-68
2022/06/16 05:20:06;;;;;;;3.70;2.70;;;;;16.40;101506.00;;;;5046070;28;20208;-68
2022/06/16 05:22:52;;;;;;;3.90;2.40;;;;;16.60;101499.00;;;;5044867;28;20259;-68
2022/06/16 05:25:40;;;;;;;4.07;3.00;;;;;16.60;101512.00;;;;5045370;28;20317;-65
2022/06/16 05:28:28;;;;;;;3.60;2.40;;;;;16.40;101500.00;;;;5046468;28;20207;-68
2022/06/16 05:31:14;;;;;;;3.43;2.53;;;;;16.50;101522.00;;;;5047263;28;20239;-68
2022/06/16 05:34:00;;;;;;;4.23;2.43;;;;;16.60;101519.00;;;;5047304;28;20302;-68
2022/06/16 05:36:47;;;;;;;5.53;2.67;;;;;16.60;101507.00;;;;5035193;28;20660;-68
2022/06/16 05:39:33;;;;;;;5.53;2.50;;;;;16.60;101517.00;;;;5044843;28;20348;-68
2022/06/16 05:42:20;;;;;;;3.30;2.70;;;;;16.70;101514.00;;;;5051064;28;20250;-67
2022/06/16 05:45:11;;;;;;;4.43;2.33;;;;;16.70;101520.00;;;;5043523;28;20661;-68
2022/06/16 05:47:58;;;;;;;5.90;3.40;;;;;16.70;101521.00;;;;5041609;28;20208;-67
2022/06/16 05:50:44;;;;;;;3.57;2.57;;;;;16.70;101535.00;;;;5039544;28;20244;-68
2022/06/16 05:53:30;;;;;;;3.20;2.27;;;;;16.60;101534.00;;;;5044993;28;20627;-68
2022/06/16 05:56:17;;;;;;;3.63;2.33;;;;;16.60;101532.00;;;;5039384;28;20579;-68
2022/06/16 05:59:03;;;;;;;3.73;2.27;;;;;16.70;101524.00;;;;5038460;28;20220;-67
2022/06/16 06:01:57;;;;;;;6.27;2.70;;;;;16.80;101529.00;;;;5044045;28;20212;-67
2022/06/16 06:04:45;;;;;;;5.47;2.90;;;;;16.70;101536.00;;;;5036623;28;20213;-67
2022/06/16 06:16:25;;;;;;;6.93;2.27;;;;;16.50;101537.00;;;;5044558;28;20683;-68
2022/06/16 06:16:47;;;;;;;3.43;2.00;;;;;16.70;101550.00;;;;5044855;28;20338;-68
2022/06/16 06:19:35;;;;;;;5.13;1.83;;;;;16.80;101559.00;;;;5045500;28;20209;-67
2022/06/16 06:22:24;;;;;;;2.40;1.97;;;;;16.90;101550.00;;;;5043770;28;20354;-68
2022/06/16 06:25:10;;;;;;;2.70;1.90;;;;;16.90;101545.00;;;;5036106;28;20212;-68
2022/06/16 06:27:57;;;;;;;2.27;1.77;;;;;17.00;101549.00;;;;5036848;28;20204;-68
2022/06/16 06:30:43;;;;;;;2.83;1.80;;;;;17.20;101561.00;;;;5043923;28;20205;-67
2022/06/16 06:33:29;;;;;;;2.33;1.40;;;;;17.20;101569.00;;;;5040647;28;20227;-68
2022/06/16 06:36:17;;;;;;;1.87;1.30;;;;;17.20;101577.00;;;;5040293;28;20253;-68
2022/06/16 06:39:03;;;;;;;2.93;1.40;;;;;17.30;101581.00;;;;5028198;28;20296;-68
2022/06/16 06:41:50;;;;;;;2.93;1.17;;;;;17.30;101568.00;;;;5045578;28;20385;-68
2022/06/16 06:44:37;;;;;;;2.20;1.50;;;;;17.40;101575.00;;;;5034766;28;20229;-68
2022/06/16 06:47:25;;;;;;;1.50;1.40;;;;;17.60;101561.00;;;;5037262;28;20280;-68
2022/06/16 06:50:19;;;;;;;2.63;1.07;;;;;17.60;101572.00;;;;5039998;28;20212;-69
2022/06/16 06:53:07;;;;;;;2.17;1.30;;;;;17.80;101586.00;;;;5048904;28;20261;-68
2022/06/16 06:55:53;;;;;;;2.27;1.27;;;;;17.80;101585.00;;;;5047907;28;20213;-69
2022/06/16 06:58:40;;;;;;;2.17;1.33;;;;;17.80;101576.00;;;;5047668;28;20224;-68
2022/06/16 07:01:26;;;;;;;2.77;1.30;;;;;17.80;101580.00;;;;5041758;28;20212;-69
2022/06/16 07:04:13;;;;;;;1.50;1.30;;;;;18.00;101582.00;;;;5044374;28;20230;-69
2022/06/16 07:07:00;;;;;;;1.70;1.37;;;;;18.10;101581.00;;;;5046810;28;20212;-68
2022/06/16 07:09:47;;;;;;;1.20;1.10;;;;;18.10;101577.00;;;;5045778;28;20212;-68
2022/06/16 07:12:34;;;;;;;3.17;1.20;;;;;18.30;101587.00;;;;5044243;28;20221;-68
2022/06/16 07:15:21;;;;;;;1.23;1.13;;;;;18.40;101593.00;;;;5036875;28;20676;-69
2022/06/16 07:18:08;;;;;;;1.73;1.10;;;;;18.50;101586.00;;;;5041754;28;20240;-69
2022/06/16 07:20:54;;;;;;;1.07;1.07;;;;;18.50;101582.00;;;;5047402;28;20240;-69
2022/06/16 07:23:41;;;;;;;2.73;1.10;;;;;18.60;101583.00;;;;5044725;28;20249;-68
2022/06/16 07:26:33;;;;;;;1.67;1.20;;;;;18.60;101569.00;;;;5043835;28;20245;-68
2022/06/16 07:29:19;;;;;;;1.13;1.10;;;;;18.80;101580.00;;;;5039687;28;20215;-67
2022/06/16 07:32:06;;;;;;;2.80;1.43;;;;;18.80;101584.00;;;;5034512;28;20273;-68
2022/06/16 07:34:53;;;;;;;1.03;0.93;;;;;18.80;101586.00;;;;5036405;28;20213;-69
2022/06/16 07:37:39;;;;;;;3.20;1.00;;;;;19.00;101587.00;;;;5045254;28;20204;-69
2022/06/16 07:40:25;;;;;;;2.93;1.27;;;;;19.10;101601.00;;;;5047404;28;20209;-70
2022/06/16 07:43:13;;;;;;;2.63;1.20;;;;;19.00;101596.00;;;;5039536;28;20878;-69
2022/06/16 07:46:01;;;;;;;1.20;1.10;;;;;19.10;101596.00;;;;5047571;28;20946;-70
2022/06/16 07:48:48;;;;;;;1.63;1.20;;;;;19.20;101599.00;;;;5052154;28;20712;-68
2022/06/16 07:51:35;;;;;;;1.53;1.20;;;;;19.40;101609.00;;;;5048481;28;20688;-70
2022/06/16 07:54:29;;;;;;;2.47;1.03;;;;;19.50;101622.00;;;;5042525;28;20213;-70
2022/06/16 07:57:41;;;;;;;2.63;1.10;;;;;19.70;101625.00;;;;5047373;28;20263;-70
2022/06/16 08:00:34;;;;;;;3.87;1.40;;;;;19.80;101621.00;;;;5040935;28;20675;-69
2022/06/16 08:03:26;;;;;;;2.53;1.10;;;;;19.80;101621.00;;;;5038331;28;20233;-70
2022/06/16 08:06:15;;;;;;;1.97;1.07;;;;;19.90;101626.00;;;;5040900;28;20204;-70
2022/06/16 08:09:02;;;;;;;1.77;0.93;;;;;19.90;101621.00;;;;5040125;28;20295;-69
2022/06/16 08:12:08;;;;;;;1.83;1.20;;;;;20.20;101636.00;;;;5046701;28;20201;-70
2022/06/16 08:14:55;;;;;;;1.27;1.17;;;;;20.10;101633.00;;;;5046878;28;20693;-70
2022/06/16 08:17:45;;;;;;;1.97;1.00;;;;;20.30;101640.00;;;;5046991;28;20212;-70
2022/06/16 08:20:32;;;;;;;2.63;1.10;;;;;20.40;101645.00;;;;5043383;28;20304;-69
2022/06/16 08:23:19;;;;;;;1.80;1.30;;;;;20.50;101645.00;;;;5047576;28;20229;-70
2022/06/16 08:26:05;;;;;;;1.93;1.10;;;;;20.70;101643.00;;;;5041586;28;20216;-70
2022/06/16 08:28:54;;;;;;;3.47;1.30;;;;;20.70;101652.00;;;;5044925;28;20212;-72
2022/06/16 08:31:41;;;;;;;3.20;1.00;;;;;20.70;101648.00;;;;5042965;28;20355;-69
2022/06/16 08:34:29;;;;;;;1.70;1.00;;;;;20.80;101661.00;;;;5044627;28;20206;-70
2022/06/16 08:37:16;;;;;;;1.37;1.13;;;;;20.80;101649.00;;;;5043554;28;20205;-70
2022/06/16 08:40:04;;;;;;;3.00;1.80;;;;;20.90;101647.00;;;;5046418;28;20422;-70
2022/06/16 08:42:52;;;;;;;2.37;1.30;;;;;21.20;101650.00;;;;5040658;28;20769;-69
2022/06/16 08:45:43;;;;;;;2.00;1.23;;;;;21.30;101645.00;;;;5038393;28;20303;-69
2022/06/16 08:48:35;;;;;;;1.23;1.07;;;;;21.50;101640.00;;;;5047111;28;20579;-69
2022/06/16 08:51:33;;;;;;;1.27;1.17;;;;;21.50;101641.00;;;;5044571;28;20708;-70
2022/06/16 08:54:34;;;;;;;1.13;1.10;;;;;21.50;101646.00;;;;5041229;28;20834;-69
2022/06/16 08:57:35;;;;;;;3.13;1.23;;;;;21.50;101662.00;;;;5039655;28;20217;-70
2022/06/16 09:00:29;;;;;;;1.30;1.20;;;;;21.70;101655.00;;;;5039936;28;20212;-70
2022/06/16 09:03:21;;;;;;;1.30;1.03;;;;;21.70;101658.00;;;;5039203;28;20303;-69
2022/06/16 09:06:24;;;;;;;1.37;1.00;;;;;21.90;101665.00;;;;5037163;28;20272;-69
2022/06/16 09:12:47;;;;;;;1.83;1.47;;;;;21.90;101665.00;;;;5046808;28;20225;-70
2022/06/16 09:15:38;;;;;;;1.60;0.93;;;;;22.20;101669.00;;;;5043317;28;20298;-70
2022/06/16 09:18:53;;;;;;;1.37;1.10;;;;;22.30;101674.00;;;;5048522;28;20702;-70
2022/06/16 09:21:46;;;;;;;2.17;1.20;;;;;22.30;101666.00;;;;5042570;28;20261;-69
2022/06/16 09:25:04;;;;;;;1.10;1.00;;;;;22.40;101671.00;;;;5050592;28;20868;-69
2022/06/16 09:27:55;;;;;;;2.40;1.30;;;;;22.50;101682.00;;;;5046910;28;20266;-70
2022/06/16 09:30:44;;;;;;;1.80;1.00;;;;;22.70;101686.00;;;;5038833;28;20215;-69
2022/06/16 09:33:35;;;;;;;1.30;1.20;;;;;22.50;101678.00;;;;5040666;28;20276;-69
2022/06/16 09:36:24;;;;;;;1.50;1.13;;;;;22.40;101672.00;;;;5042910;28;20722;-69
2022/06/16 09:39:20;;;;;;;1.10;1.10;;;;;22.40;101672.00;;;;5045176;28;20327;-69
2022/06/16 09:42:35;;;;;;;1.67;1.10;;;;;22.60;101675.00;;;;5042919;28;20775;-70
2022/06/16 09:45:27;;;;;;;2.63;1.20;;;;;22.90;101684.00;;;;5040864;28;20298;-70
2022/06/16 09:48:20;;;;;;;2.20;1.27;;;;;22.80;101683.00;;;;5039177;28;20755;-70
2022/06/16 09:51:12;;;;;;;1.63;1.23;;;;;23.00;101697.00;;;;5039206;28;20572;-70
2022/06/16 09:54:05;;;;;;;1.43;1.33;;;;;23.10;101697.00;;;;5040409;28;20652;-69
2022/06/16 09:56:56;;;;;;;2.13;1.57;;;;;23.30;101706.00;;;;5040991;28;20216;-68
2022/06/16 09:59:48;;;;;;;1.90;1.40;;;;;23.40;101717.00;;;;5042213;28;20237;-68
2022/06/16 10:02:41;;;;;;;1.30;1.20;;;;;23.20;101717.00;;;;5038328;28;20228;-68
2022/06/16 10:05:37;;;;;;;1.57;1.33;;;;;23.30;101714.00;;;;5035333;28;20250;-69
2022/06/16 10:08:30;;;;;;;2.43;1.30;;;;;23.50;101714.00;;;;5037374;28;20225;-69
2022/06/16 10:11:26;;;;;;;2.07;1.20;;;;;23.70;101704.00;;;;5041179;28;20282;-68
2022/06/16 10:14:21;;;;;;;1.50;1.40;;;;;23.90;101715.00;;;;5034834;28;20237;-68
2022/06/16 10:17:11;;;;;;;1.30;1.20;;;;;23.80;101705.00;;;;5040904;28;20603;-68
2022/06/16 10:19:58;;;;;;;2.57;1.70;;;;;24.00;101712.00;;;;5040715;28;20224;-68
2022/06/16 10:23:05;;;;;;;1.87;1.60;;;;;24.00;101705.00;;;;5037631;28;20236;-69
2022/06/16 10:25:56;;;;;;;2.07;1.40;;;;;24.00;101716.00;;;;5041169;28;20229;-68
2022/06/16 10:28:59;;;;;;;2.40;1.53;;;;;24.10;101713.00;;;;5040816;28;20214;-68
2022/06/16 10:31:48;;;;;;;3.33;1.47;;;;;24.20;101721.00;;;;5040912;28;20783;-68
2022/06/16 10:34:38;;;;;;;3.30;1.60;;;;;24.20;101717.00;;;;5041902;28;20300;-69
2022/06/16 10:37:28;;;;;;;2.33;1.37;;;;;24.70;101727.00;;;;5040246;28;20213;-69
2022/06/16 10:40:27;;;;;;;3.67;1.30;;;;;24.80;101728.00;;;;5039956;28;20209;-69
2022/06/16 10:43:38;;;;;;;1.53;1.30;;;;;24.90;101732.00;;;;5036656;28;20228;-67
2022/06/16 10:46:31;;;;;;;3.50;1.50;;;;;24.80;101748.00;;;;5040708;28;20832;-68
2022/06/16 10:49:20;;;;;;;3.20;1.80;;;;;25.00;101740.00;;;;5044394;28;20260;-68
2022/06/16 10:52:11;;;;;;;3.10;1.70;;;;;25.00;101744.00;;;;5043317;28;20263;-68
2022/06/16 10:55:02;;;;;;;2.10;1.60;;;;;24.70;101740.00;;;;5046026;28;20208;-67
2022/06/16 10:57:57;;;;;;;2.00;1.80;;;;;24.50;101743.00;;;;5047167;28;20208;-68
2022/06/16 11:00:59;;;;;;;3.87;1.60;;;;;24.90;101744.00;;;;5050412;28;20208;-69
2022/06/16 11:03:47;;;;;;;5.30;2.10;;;;;25.00;101744.00;;;;5045266;28;20240;-69
2022/06/16 11:06:34;;;;;;;2.00;1.80;;;;;25.30;101741.00;;;;5043396;28;20249;-69
2022/06/16 11:09:24;;;;;;;2.60;1.90;;;;;25.50;101744.00;;;;5053242;28;20327;-68
2022/06/16 11:12:16;;;;;;;1.67;1.57;;;;;25.40;101747.00;;;;5041901;28;20267;-67
2022/06/16 11:15:15;;;;;;;1.90;1.70;;;;;25.60;101744.00;;;;5046845;28;20217;-70
2022/06/16 11:18:04;;;;;;;1.70;1.60;;;;;25.50;101738.00;;;;5050675;28;20293;-70
2022/06/16 11:20:52;;;;;;;2.67;1.80;;;;;25.60;101748.00;;;;5032416;28;20259;-69
2022/06/16 11:23:43;;;;;;;5.47;1.70;;;;;25.60;101739.00;;;;5034903;28;20281;-70
2022/06/16 11:26:34;;;;;;;2.27;1.60;;;;;25.80;101748.00;;;;5032234;28;20404;-69
2022/06/16 11:29:24;;;;;;;3.70;1.70;;;;;25.90;101747.00;;;;5035080;28;20287;-69
2022/06/16 11:32:17;;;;;;;3.10;1.63;;;;;26.10;101742.00;;;;5047458;28;20221;-69
2022/06/16 11:35:09;;;;;;;4.53;2.80;;;;;26.40;101743.00;;;;5036413;28;20245;-70
2022/06/16 11:38:01;;;;;;;2.00;1.80;;;;;26.30;101737.00;;;;5037628;28;20221;-71
2022/06/16 11:40:54;;;;;;;2.10;1.77;;;;;26.30;101741.00;;;;5038562;28;20214;-69
2022/06/16 11:44:03;;;;;;;1.77;1.60;;;;;26.30;101742.00;;;;5045946;28;20233;-69
2022/06/16 11:46:57;;;;;;;1.90;1.70;;;;;26.70;101730.00;;;;5047482;28;20229;-70
2022/06/16 11:49:53;;;;;;;2.53;1.97;;;;;26.60;101729.00;;;;5043338;28;20205;-70
2022/06/16 11:52:48;;;;;;;4.67;1.70;;;;;27.00;101732.00;;;;5046211;28;20320;-70
2022/06/16 11:55:40;;;;;;;2.93;2.00;;;;;26.80;101738.00;;;;5042438;28;20642;-68
2022/06/16 11:58:43;;;;;;;3.17;1.80;;;;;26.30;101735.00;;;;5044104;28;20320;-69
2022/06/16 12:01:38;;;;;;;2.10;1.90;;;;;26.30;101737.00;;;;5041423;28;20212;-69
2022/06/16 12:04:50;;;;;;;2.67;2.07;;;;;26.50;101749.00;;;;5041072;28;20348;-70
2022/06/16 12:07:57;;;;;;;2.03;1.70;;;;;26.30;101761.00;;;;5046694;28;20246;-69
2022/06/16 12:10:48;;;;;;;3.30;1.83;;;;;25.60;101741.00;;;;5045919;28;20235;-69
2022/06/16 12:13:41;;;;;;;3.00;1.80;;;;;25.80;101752.00;;;;5040758;28;20236;-72
2022/06/16 12:16:35;;;;;;;3.53;1.73;;;;;26.30;101751.00;;;;5039209;28;20299;-71
2022/06/16 12:19:34;;;;;;;2.37;1.87;;;;;26.60;101755.00;;;;5041250;28;20304;-69
2022/06/16 12:22:28;;;;;;;6.13;1.90;;;;;26.80;101752.00;;;;5042370;28;20312;-69
2022/06/16 12:25:22;;;;;;;2.03;1.70;;;;;26.90;101754.00;;;;5046184;28;20744;-69
2022/06/16 12:28:16;;;;;;;3.63;1.83;;;;;27.10;101752.00;;;;5043297;28;20212;-70
2022/06/16 12:31:10;;;;;;;3.27;1.80;;;;;27.00;101754.00;;;;5046017;28;20213;-70
2022/06/16 12:34:03;;;;;;;2.00;1.80;;;;;27.20;101744.00;;;;5044383;28;20307;-71
2022/06/16 12:36:54;;;;;;;2.10;1.83;;;;;27.50;101755.00;;;;5043820;28;20224;-71
2022/06/16 12:39:47;;;;;;;3.47;1.80;;;;;27.40;101745.00;;;;5041784;28;20221;-70
2022/06/16 12:42:37;;;;;;;2.70;1.65;;;;;27.40;101734.00;;;;5041966;28;20922;-70
2022/06/16 12:45:29;;;;;;;3.65;2.00;;;;;27.40;101728.00;;;;5037511;28;20233;-70
2022/06/16 12:48:19;;;;;;;2.60;1.80;;;;;27.70;101715.00;;;;5039581;28;20710;-70
2022/06/16 12:51:11;;;;;;;5.18;2.10;;;;;27.50;101728.00;;;;5045832;28;20224;-69
2022/06/16 12:54:01;;;;;;;2.25;1.98;;;;;27.70;101734.00;;;;5043382;28;20236;-71
2022/06/16 12:56:51;;;;;;;2.58;1.63;;;;;28.00;101728.00;;;;5041857;28;20224;-70
2022/06/16 12:59:42;;;;;;;4.72;1.90;;;;;28.10;101726.00;;;;5046204;28;20245;-70
2022/06/16 13:02:34;;;;;;;2.92;1.80;;;;;28.40;101721.00;;;;5042895;28;20236;-71
2022/06/16 13:05:20;;;;;;;2.65;1.90;;;;;28.50;101732.00;;;;5039716;28;20686;-71
2022/06/16 13:08:10;;;;;;;2.40;1.80;;;;;28.20;101731.00;;;;5039980;28;20216;-70
2022/06/16 13:10:59;;;;;;;4.15;1.75;;;;;28.20;101726.00;;;;5040650;28;20213;-69
2022/06/16 13:13:48;;;;;;;1.58;1.48;;;;;28.20;101727.00;;;;5046224;28;20248;-70
2022/06/16 13:16:39;;;;;;;2.20;1.67;;;;;28.20;101733.00;;;;5046396;28;20873;-70
2022/06/16 13:19:32;;;;;;;2.75;1.90;;;;;28.00;101736.00;;;;5039828;28;20219;-70
2022/06/16 13:22:25;;;;;;;4.22;1.90;;;;;28.20;101731.00;;;;5040892;28;20224;-71
2022/06/16 13:25:15;;;;;;;2.63;1.88;;;;;28.40;101738.00;;;;5031842;28;20532;-69
2022/06/16 13:28:01;;;;;;;2.55;1.70;;;;;28.40;101738.00;;;;5043091;28;20609;-70
2022/06/16 13:31:22;;;;;;;6.97;2.05;;;;;28.50;101749.00;;;;5041018;28;20263;-70
2022/06/16 13:34:14;;;;;;;2.65;1.70;;;;;29.00;101733.00;;;;5042123;28;20232;-70
2022/06/16 13:37:00;;;;;;;1.75;1.50;;;;;29.00;101731.00;;;;5047120;28;20228;-70
2022/06/16 13:40:09;;;;;;;2.75;1.98;;;;;29.20;101748.00;;;;5042046;28;20213;-71
2022/06/16 13:43:06;;;;;;;3.28;1.73;;;;;28.30;101738.00;;;;5046003;28;20236;-70
2022/06/16 13:45:56;;;;;;;1.95;1.55;;;;;28.60;101741.00;;;;5047149;28;20351;-70
2022/06/16 13:48:51;;;;;;;2.10;1.90;;;;;29.20;101749.00;;;;5044517;28;20283;-69
2022/06/16 13:51:44;;;;;;;3.05;1.90;;;;;29.50;101751.00;;;;5048006;28;20216;-69
2022/06/16 13:54:35;;;;;;;2.47;1.70;;;;;29.60;101752.00;;;;5044402;28;20209;-69
2022/06/16 13:57:25;;;;;;;3.75;1.77;;;;;29.60;101746.00;;;;5043896;28;20756;-70
2022/06/16 14:00:32;;;;;;;2.60;2.00;;;;;29.70;101772.00;;;;5049029;28;20205;-72
2022/06/16 14:03:22;;;;;;;3.60;1.58;;;;;30.30;101769.00;;;;5039553;28;20618;-71
2022/06/16 14:06:13;;;;;;;3.38;1.70;;;;;30.20;101785.00;;;;5040371;28;20763;-71
2022/06/16 14:09:03;;;;;;;2.65;1.77;;;;;30.10;101790.00;;;;5040600;28;20360;-72
2022/06/16 14:12:12;;;;;;;3.08;1.80;;;;;29.80;101795.00;;;;5034178;28;20355;-71
2022/06/16 14:15:07;;;;;;;3.28;2.03;;;;;28.60;101792.00;;;;5041260;28;20840;-70
2022/06/16 14:18:16;;;;;;;3.38;2.28;;;;;30.20;101781.00;;;;5042286;28;20204;-70
2022/06/16 14:21:07;;;;;;;2.63;1.70;;;;;31.30;101780.00;;;;5036343;28;20881;-70